createdAt,value
2019-01-25T00:01:47.318Z,59.500000
2019-01-25T00:04:17.845Z,66.900000
2019-01-25T00:06:48.476Z,66.900000
2019-01-25T00:09:19.106Z,63.900000
2019-01-25T00:11:49.532Z,63.900000
2019-01-25T00:14:19.956Z,65.200000
2019-01-25T00:16:50.382Z,65.200000
2019-01-25T00:19:20.912Z,67.600000
2019-01-25T00:21:52.049Z,67.600000
2019-01-25T00:24:22.372Z,64.900000
2019-01-25T00:26:52.901Z,64.900000
2019-01-25T00:29:23.324Z,58.600000
2019-01-25T00:31:53.958Z,58.600000
2019-01-25T00:34:24.429Z,62.500000
2019-01-25T00:36:55.119Z,62.500000
2019-01-25T00:39:25.953Z,72.100000
2019-01-25T00:41:56.480Z,72.100000
2019-01-25T00:44:27.004Z,58.300000
2019-01-25T00:46:57.431Z,58.300000
2019-01-25T00:49:27.861Z,66.300000
2019-01-25T00:51:58.487Z,66.300000
2019-01-25T00:54:28.914Z,62.600000
2019-01-25T00:56:59.543Z,62.600000
2019-01-25T00:59:29.863Z,53.500000
2019-01-25T01:02:00.186Z,53.500000
2019-01-25T01:04:30.714Z,68.800000
2019-01-25T01:07:01.242Z,68.800000
2019-01-25T01:09:31.668Z,58.200000
2019-01-25T01:12:01.992Z,58.200000
2019-01-25T01:14:32.313Z,69.100000
2019-01-25T01:17:02.739Z,69.100000
2019-01-25T01:19:33.163Z,59.300000
2019-01-25T01:22:03.602Z,59.300000
2019-01-25T01:24:34.123Z,65.700000
2019-01-25T01:27:04.543Z,65.700000
2019-01-25T01:29:34.865Z,64.400000
2019-01-25T01:32:05.291Z,64.400000
2019-01-25T01:34:35.619Z,68.900000
2019-01-25T01:37:06.245Z,68.900000
2019-01-25T01:39:36.648Z,56.300000
2019-01-25T01:42:07.199Z,56.300000
2019-01-25T01:44:37.623Z,54.500000
2019-01-25T01:47:08.049Z,54.500000
2019-01-25T01:49:38.473Z,60.700000
2019-01-25T01:52:09.002Z,60.700000
2019-01-25T01:54:39.531Z,61.600000
2019-01-25T01:57:10.164Z,61.600000
2019-01-25T01:59:40.586Z,71.500000
2019-01-25T02:02:10.963Z,71.500000
2019-01-25T02:04:41.338Z,57.900000
2019-01-25T02:07:11.758Z,57.900000
2019-01-25T02:09:42.185Z,63.200000
2019-01-25T02:12:12.560Z,63.200000
2019-01-25T02:14:42.882Z,62.000000
2019-01-25T02:17:13.462Z,62.000000
2019-01-25T02:19:43.992Z,59.700000
2019-01-25T02:22:14.564Z,59.700000
2019-01-25T02:24:45.011Z,62.600000
2019-01-25T02:27:15.372Z,62.600000
2019-01-25T02:29:45.793Z,60.500000
2019-01-25T02:32:16.220Z,60.500000
2019-01-25T02:34:46.591Z,55.200000
2019-01-25T02:37:17.077Z,55.200000
2019-01-25T02:39:47.601Z,66.400000
2019-01-25T02:42:18.124Z,66.400000
2019-01-25T02:44:48.653Z,64.900000
2019-01-25T02:47:19.028Z,64.900000
2019-01-25T02:49:49.405Z,68.000000
2019-01-25T02:52:19.929Z,68.000000
2019-01-25T02:54:50.356Z,70.000000
2019-01-25T02:57:20.891Z,70.000000
2019-01-25T02:59:51.514Z,58.100000
2019-01-25T03:02:21.940Z,58.100000
2019-01-25T03:04:52.465Z,54.000000
2019-01-25T03:07:22.813Z,54.000000
2019-01-25T03:09:53.200Z,67.900000
2019-01-25T03:12:23.640Z,67.900000
2019-01-25T03:14:56.046Z,63.200000
2019-01-25T03:17:26.438Z,63.200000
2019-01-25T03:19:56.862Z,62.200000
2019-01-25T03:22:27.389Z,62.200000
2019-01-25T03:24:57.825Z,64.400000
2019-01-25T03:27:28.528Z,64.400000
2019-01-25T03:29:59.076Z,58.800000
2019-01-25T03:32:29.405Z,58.800000
2019-01-25T03:34:59.746Z,62.400000
2019-01-25T03:37:30.147Z,62.400000
2019-01-25T03:40:00.573Z,68.700000
2019-01-25T03:42:30.926Z,68.700000
2019-01-25T03:45:01.527Z,64.700000
2019-01-25T03:47:32.075Z,64.700000
2019-01-25T03:50:02.480Z,58.100000
2019-01-25T03:52:32.905Z,58.100000
2019-01-25T03:55:03.430Z,59.800000
2019-01-25T03:57:33.960Z,59.800000
2019-01-25T04:00:04.387Z,61.200000
2019-01-25T04:02:34.914Z,61.200000
2019-01-25T04:05:05.340Z,61.000000
2019-01-25T04:07:35.664Z,61.000000
2019-01-25T04:10:06.166Z,68.200000
2019-01-25T04:12:36.515Z,68.200000
2019-01-25T04:15:06.933Z,60.000000
2019-01-25T04:17:37.484Z,60.000000
2019-01-25T04:20:07.902Z,63.100000
2019-01-25T04:22:38.468Z,62.700000
2019-01-25T04:25:08.869Z,62.700000
2019-01-25T04:27:39.783Z,68.400000
2019-01-25T04:30:10.213Z,68.400000
2019-01-25T04:32:40.838Z,62.200000
2019-01-25T04:35:11.265Z,62.200000
2019-01-25T04:37:41.689Z,60.500000
2019-01-25T04:40:12.218Z,60.500000
2019-01-25T04:42:42.702Z,65.600000
2019-01-25T04:45:13.170Z,65.600000
2019-01-25T04:47:43.705Z,59.400000
2019-01-25T04:50:14.104Z,59.400000
2019-01-25T04:52:44.650Z,53.600000
2019-01-25T04:55:15.078Z,53.600000
2019-01-25T04:57:45.399Z,64.000000
2019-01-25T05:00:15.905Z,64.000000
2019-01-25T05:02:46.228Z,71.400000
2019-01-25T05:05:16.727Z,71.400000
2019-01-25T05:07:47.086Z,60.200000
2019-01-25T05:10:17.494Z,60.200000
2019-01-25T05:12:49.035Z,57.700000
2019-01-25T05:15:19.476Z,57.700000
2019-01-25T05:17:49.803Z,57.800000
2019-01-25T05:20:20.051Z,57.800000
2019-01-25T05:22:55.505Z,60.600000
2019-01-25T05:25:25.809Z,60.600000
2019-01-25T05:27:56.050Z,65.100000
2019-01-25T05:30:26.381Z,65.100000
2019-01-25T05:32:56.727Z,65.600000
2019-01-25T05:35:27.080Z,65.600000
2019-01-25T05:37:57.295Z,52.500000
2019-01-25T05:40:27.569Z,52.500000
2019-01-25T05:42:57.807Z,63.500000
2019-01-25T05:45:28.124Z,63.500000
2019-01-25T05:47:58.454Z,58.000000
2019-01-25T05:50:28.776Z,58.000000
2019-01-25T05:53:04.068Z,65.600000
2019-01-25T05:55:34.340Z,65.600000
2019-01-25T05:58:04.570Z,60.700000
2019-01-25T06:00:34.970Z,60.700000
2019-01-25T06:03:05.232Z,60.100000
2019-01-25T06:05:35.551Z,60.100000
2019-01-25T06:08:05.970Z,63.000000
2019-01-25T06:10:36.306Z,63.000000
2019-01-25T06:13:06.748Z,55.600000
2019-01-25T06:15:37.076Z,55.600000
2019-01-25T06:18:12.374Z,65.800000
2019-01-25T06:20:42.721Z,65.800000
2019-01-25T06:23:13.050Z,62.800000
2019-01-25T06:25:43.265Z,62.800000
2019-01-25T06:28:13.623Z,66.800000
2019-01-25T06:30:43.914Z,66.800000
2019-01-25T06:33:14.426Z,60.500000
2019-01-25T06:35:49.703Z,60.500000
2019-01-25T06:38:20.071Z,60.500000
2019-01-25T06:40:50.387Z,60.500000
2019-01-25T06:43:20.710Z,58.900000
2019-01-25T06:45:51.044Z,58.900000
2019-01-25T06:48:21.480Z,52.700000
2019-01-25T06:50:51.873Z,52.700000
2019-01-25T06:53:22.294Z,55.600000
2019-01-25T06:55:52.511Z,55.600000
2019-01-25T06:58:22.850Z,60.900000
2019-01-25T07:00:53.096Z,60.900000
2019-01-25T07:03:23.406Z,59.200000
2019-01-25T07:05:58.700Z,59.200000
2019-01-25T07:08:29.010Z,67.500000
2019-01-25T07:10:59.337Z,67.500000
2019-01-25T07:13:29.584Z,58.900000
2019-01-25T07:15:59.944Z,58.900000
2019-01-25T07:18:30.428Z,55.500000
2019-01-25T07:21:00.661Z,55.500000
2019-01-25T07:23:30.999Z,61.900000
2019-01-25T07:26:01.305Z,61.900000
2019-01-25T07:28:31.529Z,60.900000
2019-01-25T07:31:01.855Z,60.900000
2019-01-25T07:33:32.256Z,61.400000
2019-01-25T07:36:02.612Z,61.400000
2019-01-25T07:38:32.961Z,61.600000
2019-01-25T07:41:03.458Z,61.600000
2019-01-25T07:43:33.794Z,59.000000
2019-01-25T07:46:04.041Z,59.000000
2019-01-25T07:48:34.330Z,62.900000
2019-01-25T07:51:04.616Z,62.900000
2019-01-25T07:53:35.025Z,60.600000
2019-01-25T07:56:05.487Z,60.600000
2019-01-25T07:58:35.848Z,55.700000
2019-01-25T08:01:06.272Z,55.700000
2019-01-25T08:03:36.641Z,66.300000
2019-01-25T08:06:07.016Z,66.300000
2019-01-25T08:08:39.303Z,68.200000
2019-01-25T08:11:09.613Z,68.200000
2019-01-25T08:13:40.344Z,67.900000
2019-01-25T08:16:10.732Z,67.900000
2019-01-25T08:18:41.222Z,69.200000
2019-01-25T08:21:11.720Z,69.200000
2019-01-25T08:23:42.012Z,55.100000
2019-01-25T08:26:12.352Z,55.100000
2019-01-25T08:28:43.182Z,55.200000
2019-01-25T08:31:13.428Z,51.100000
2019-01-25T08:33:43.855Z,51.100000
2019-01-25T08:36:14.189Z,57.800000
2019-01-25T08:38:44.522Z,57.800000
2019-01-25T08:41:15.174Z,65.100000
2019-01-25T08:43:45.451Z,65.100000
2019-01-25T08:46:15.795Z,66.400000
2019-01-25T08:48:46.324Z,66.400000
2019-01-25T08:51:16.789Z,57.200000
2019-01-25T08:53:47.178Z,57.200000
2019-01-25T08:56:17.568Z,55.200000
2019-01-25T08:58:47.897Z,55.200000
2019-01-25T09:01:18.134Z,61.000000
2019-01-25T09:03:48.462Z,61.000000
2019-01-25T09:06:18.796Z,62.300000
2019-01-25T09:08:49.056Z,62.300000
2019-01-25T09:11:19.362Z,58.500000
2019-01-25T09:13:49.805Z,58.500000
2019-01-25T09:16:20.237Z,62.000000
2019-01-25T09:18:50.566Z,62.000000
2019-01-25T09:21:20.810Z,45.400000
2019-01-25T09:23:51.059Z,45.400000
2019-01-25T09:26:21.274Z,61.200000
2019-01-25T09:28:51.617Z,61.200000
2019-01-25T09:31:21.939Z,62.200000
2019-01-25T09:33:52.254Z,62.200000
2019-01-25T09:36:22.602Z,71.400000
2019-01-25T09:38:52.985Z,71.400000
2019-01-25T09:41:23.367Z,67.300000
2019-01-25T09:43:53.684Z,67.300000
2019-01-25T09:46:24.010Z,58.800000
2019-01-25T09:48:54.359Z,58.800000
2019-01-25T09:51:24.723Z,58.200000
2019-01-25T09:53:54.942Z,58.200000
2019-01-25T09:56:25.184Z,64.300000
2019-01-25T09:58:55.506Z,64.300000
2019-01-25T10:01:25.843Z,59.300000
2019-01-25T10:03:56.186Z,59.300000
2019-01-25T10:06:26.541Z,66.600000
2019-01-25T10:08:56.882Z,66.600000
2019-01-25T10:11:27.295Z,59.800000
2019-01-25T10:13:57.692Z,59.800000
2019-01-25T10:16:28.014Z,71.200000
2019-01-25T10:18:58.341Z,71.200000
2019-01-25T10:21:28.645Z,56.100000
2019-01-25T10:23:58.957Z,56.100000
2019-01-25T10:26:29.263Z,58.400000
2019-01-25T10:28:59.573Z,58.400000
2019-01-25T10:31:29.804Z,70.800000
2019-01-25T10:34:00.019Z,70.800000
2019-01-25T10:36:30.331Z,69.800000
2019-01-25T10:39:00.654Z,69.800000
2019-01-25T10:41:30.996Z,72.900000
2019-01-25T10:44:01.355Z,72.900000
2019-01-25T10:46:31.625Z,63.900000
2019-01-25T10:49:01.975Z,63.900000
2019-01-25T10:51:32.308Z,72.400000
2019-01-25T10:54:02.595Z,72.400000
2019-01-25T10:56:32.912Z,65.400000
2019-01-25T10:59:03.261Z,65.400000
2019-01-25T11:01:33.497Z,80.200000
2019-01-25T11:04:03.784Z,80.200000
2019-01-25T11:06:34.013Z,62.000000
2019-01-25T11:09:04.329Z,62.000000
2019-01-25T11:11:34.551Z,54.400000
2019-01-25T11:14:04.907Z,54.400000
2019-01-25T11:16:35.209Z,59.500000
2019-01-25T11:19:05.554Z,59.500000
2019-01-25T11:21:37.533Z,64.800000
2019-01-25T11:24:13.021Z,64.800000
2019-01-25T11:26:43.296Z,71.400000
2019-01-25T11:29:13.535Z,71.400000
2019-01-25T11:31:43.777Z,69.300000
2019-01-25T11:34:14.096Z,69.300000
2019-01-25T11:36:44.543Z,76.200000
2019-01-25T11:39:14.788Z,76.200000
2019-01-25T11:41:45.099Z,73.100000
2019-01-25T11:44:15.455Z,73.100000
2019-01-25T11:46:45.789Z,74.800000
2019-01-25T11:49:16.066Z,74.800000
2019-01-25T11:51:46.377Z,69.000000
2019-01-25T11:54:16.632Z,69.000000
2019-01-25T11:56:46.937Z,73.700000
2019-01-25T11:59:17.268Z,73.700000
2019-01-25T12:01:47.522Z,77.800000
2019-01-25T12:04:17.887Z,77.800000
2019-01-25T12:06:48.188Z,78.400000
2019-01-25T12:09:18.535Z,78.400000
2019-01-25T12:11:48.957Z,79.000000
2019-01-25T12:14:19.308Z,79.000000
2019-01-25T12:16:49.538Z,65.500000
2019-01-25T12:19:19.829Z,65.500000
2019-01-25T12:21:50.261Z,81.000000
2019-01-25T12:24:20.573Z,81.000000
2019-01-25T12:26:50.891Z,67.500000
2019-01-25T12:29:21.271Z,67.500000
2019-01-25T12:31:56.669Z,62.400000
2019-01-25T12:34:26.980Z,62.400000
2019-01-25T12:36:57.325Z,69.100000
2019-01-25T12:39:27.625Z,69.100000
2019-01-25T12:41:58.052Z,68.500000
2019-01-25T12:44:28.424Z,68.500000
2019-01-25T12:46:58.760Z,54.600000
2019-01-25T12:49:29.081Z,54.600000
2019-01-25T12:51:59.438Z,54.100000
2019-01-25T12:54:29.783Z,54.100000
2019-01-25T12:57:00.105Z,78.900000
2019-01-25T12:59:30.575Z,78.900000
2019-01-25T13:02:00.810Z,77.100000
2019-01-25T13:04:31.043Z,77.100000
2019-01-25T13:07:01.281Z,67.900000
2019-01-25T13:09:31.546Z,67.900000
2019-01-25T13:12:01.880Z,74.400000
2019-01-25T13:14:32.208Z,74.400000
2019-01-25T13:17:02.553Z,69.100000
2019-01-25T13:19:32.915Z,70.400000
2019-01-25T13:22:03.448Z,70.400000
2019-01-25T13:24:33.822Z,58.900000
2019-01-25T13:27:04.294Z,58.900000
2019-01-25T13:29:34.727Z,55.200000
2019-01-25T13:32:05.073Z,55.200000
2019-01-25T13:34:35.516Z,55.800000
2019-01-25T13:37:05.980Z,55.800000
2019-01-25T13:39:36.507Z,51.000000
2019-01-25T13:42:06.903Z,51.000000
2019-01-25T13:44:37.369Z,50.400000
2019-01-25T13:47:07.779Z,50.400000
2019-01-25T13:49:38.215Z,35.700000
2019-01-25T13:52:08.458Z,35.700000
2019-01-25T13:54:38.817Z,40.500000
2019-01-25T13:57:09.202Z,40.500000
2019-01-25T13:59:39.536Z,36.700000
2019-01-25T14:02:09.881Z,36.700000
2019-01-25T14:04:40.244Z,39.700000
2019-01-25T14:07:10.616Z,39.700000
2019-01-25T14:09:40.953Z,45.800000
2019-01-25T14:12:11.184Z,45.800000
2019-01-25T14:14:41.537Z,27.300000
2019-01-25T14:17:11.765Z,27.300000
2019-01-25T14:19:42.009Z,41.000000
2019-01-25T14:22:12.267Z,41.000000
2019-01-25T14:24:42.512Z,36.800000
2019-01-25T14:27:12.775Z,36.800000
2019-01-25T14:29:43.115Z,31.700000
2019-01-25T14:32:13.506Z,31.700000
2019-01-25T14:34:43.788Z,33.200000
2019-01-25T14:37:14.028Z,33.200000
2019-01-25T14:39:44.286Z,31.700000
2019-01-25T14:42:14.526Z,31.700000
2019-01-25T14:44:44.773Z,36.900000
2019-01-25T14:47:15.221Z,36.900000
2019-01-25T14:49:45.559Z,26.800000
2019-01-25T14:52:15.795Z,26.800000
2019-01-25T14:54:46.039Z,41.100000
2019-01-25T14:57:16.282Z,41.100000
2019-01-25T14:59:46.538Z,27.300000
2019-01-25T15:02:16.993Z,27.300000
2019-01-25T15:04:47.401Z,32.000000
2019-01-25T15:07:17.816Z,32.000000
2019-01-25T15:09:53.099Z,25.900000
2019-01-25T15:12:23.444Z,25.900000
2019-01-25T15:14:53.729Z,28.200000
2019-01-25T15:17:24.096Z,28.200000
2019-01-25T15:19:54.338Z,30.000000
2019-01-25T15:22:24.599Z,30.000000
2019-01-25T15:24:54.965Z,30.600000
2019-01-25T15:27:25.315Z,30.600000
2019-01-25T15:29:55.761Z,26.700000
2019-01-25T15:32:26.067Z,26.700000
2019-01-25T15:34:56.319Z,25.700000
2019-01-25T15:37:26.677Z,25.700000
2019-01-25T15:39:57.030Z,26.300000
2019-01-25T15:42:27.293Z,26.300000
2019-01-25T15:44:57.543Z,24.400000
2019-01-25T15:47:27.807Z,24.400000
2019-01-25T15:49:58.162Z,26.100000
2019-01-25T15:52:28.530Z,26.100000
2019-01-25T15:54:58.851Z,31.400000
2019-01-25T15:57:29.142Z,31.400000
2019-01-25T15:59:59.402Z,32.400000
2019-01-25T16:02:29.801Z,32.400000
2019-01-25T16:05:00.088Z,26.200000
2019-01-25T16:07:30.466Z,26.200000
2019-01-25T16:10:00.825Z,30.200000
2019-01-25T16:12:31.189Z,30.200000
2019-01-25T16:15:01.546Z,30.300000
2019-01-25T16:17:32.007Z,30.300000
2019-01-25T16:20:03.400Z,27.000000
2019-01-25T16:22:33.843Z,27.000000
2019-01-25T16:25:09.322Z,26.000000
2019-01-25T16:27:39.673Z,26.000000
2019-01-25T16:30:09.968Z,23.100000
2019-01-25T16:32:40.340Z,23.100000
2019-01-25T16:35:10.634Z,29.200000
2019-01-25T16:37:40.999Z,29.200000
2019-01-25T16:40:11.285Z,26.700000
2019-01-25T16:42:41.554Z,26.700000
2019-01-25T16:45:11.829Z,31.600000
2019-01-25T16:47:42.172Z,31.600000
2019-01-25T16:50:12.534Z,24.700000
2019-01-25T16:52:42.800Z,24.700000
2019-01-25T16:55:13.150Z,26.900000
2019-01-25T16:57:43.454Z,26.900000
2019-01-25T17:00:13.811Z,29.600000
2019-01-25T17:02:44.102Z,29.600000
2019-01-25T17:05:14.472Z,25.500000
2019-01-25T17:07:49.808Z,25.500000
2019-01-25T17:10:24.996Z,28.700000
2019-01-25T17:12:55.264Z,28.700000
2019-01-25T17:15:26.722Z,30.100000
2019-01-25T17:18:02.182Z,30.100000
2019-01-25T17:20:32.513Z,30.800000
2019-01-25T17:23:05.009Z,30.800000
2019-01-25T17:25:40.374Z,34.800000
2019-01-25T17:28:10.674Z,30.500000
2019-01-25T17:30:41.043Z,30.500000
2019-01-25T17:33:11.322Z,21.300000
2019-01-25T17:35:41.516Z,21.300000
2019-01-25T17:38:11.812Z,27.500000
2019-01-25T17:40:46.792Z,27.500000
2019-01-25T17:43:22.454Z,24.800000
2019-01-25T17:45:57.771Z,24.800000
2019-01-25T17:48:28.035Z,25.800000
2019-01-25T17:50:58.609Z,25.800000
2019-01-25T17:53:28.985Z,20.500000
2019-01-25T17:55:59.346Z,20.500000
2019-01-25T17:58:29.731Z,25.000000
2019-01-25T18:01:00.100Z,25.000000
2019-01-25T18:03:30.468Z,24.900000
2019-01-25T18:06:00.854Z,24.900000
2019-01-25T18:08:31.145Z,22.700000
2019-01-25T18:11:01.568Z,22.700000
2019-01-25T18:13:31.995Z,24.200000
2019-01-25T18:16:02.392Z,24.200000
2019-01-25T18:18:32.769Z,22.500000
2019-01-25T18:21:03.032Z,22.500000
2019-01-25T18:23:33.326Z,19.200000
2019-01-25T18:26:03.602Z,19.200000
2019-01-25T18:28:33.969Z,20.500000
2019-01-25T18:31:04.380Z,20.500000
2019-01-25T18:33:34.665Z,17.500000
2019-01-25T18:36:05.005Z,17.500000
2019-01-25T18:38:35.288Z,19.200000
2019-01-25T18:41:10.550Z,19.200000
2019-01-25T18:43:40.821Z,17.200000
2019-01-25T18:46:11.113Z,17.200000
2019-01-25T18:48:41.566Z,19.300000
2019-01-25T18:51:11.833Z,19.300000
2019-01-25T18:53:42.375Z,18.400000
2019-01-25T18:56:12.671Z,18.400000
2019-01-25T18:58:42.926Z,13.400000
2019-01-25T19:01:13.331Z,13.400000
2019-01-25T19:03:43.597Z,16.200000
2019-01-25T19:06:13.948Z,16.200000
2019-01-25T19:08:44.308Z,14.100000
2019-01-25T19:11:14.558Z,14.100000
2019-01-25T19:13:49.941Z,14.500000
2019-01-25T19:16:20.182Z,14.500000
2019-01-25T19:18:50.506Z,13.700000
2019-01-25T19:21:20.945Z,13.700000
2019-01-25T19:23:51.165Z,15.500000
2019-01-25T19:26:21.579Z,15.500000
2019-01-25T19:28:51.925Z,10.500000
2019-01-25T19:31:22.553Z,10.500000
2019-01-25T19:33:58.076Z,11.400000
2019-01-25T19:36:28.393Z,11.400000
2019-01-25T19:38:58.658Z,10.900000
2019-01-25T19:41:28.931Z,10.900000
2019-01-25T19:43:59.308Z,9.800000
2019-01-25T19:46:29.692Z,9.800000
2019-01-25T19:49:00.159Z,8.600000
2019-01-25T19:51:30.424Z,8.600000
2019-01-25T19:54:00.885Z,9.500000
2019-01-25T19:56:31.167Z,9.500000
2019-01-25T19:59:01.525Z,10.800000
2019-01-25T20:01:32.055Z,10.800000
2019-01-25T20:04:02.282Z,9.600000
2019-01-25T20:06:32.546Z,9.600000
2019-01-25T20:09:02.841Z,9.100000
2019-01-25T20:11:33.224Z,9.100000
2019-01-25T20:14:08.539Z,8.500000
2019-01-25T20:16:38.863Z,8.500000
2019-01-25T20:19:09.216Z,9.100000
2019-01-25T20:21:39.600Z,9.100000
2019-01-25T20:24:09.999Z,7.800000
2019-01-25T20:26:40.336Z,7.800000
2019-01-25T20:29:10.898Z,9.100000
2019-01-25T20:31:46.134Z,9.100000
2019-01-25T20:34:16.497Z,9.400000
2019-01-25T20:36:47.010Z,9.400000
2019-01-25T20:39:17.352Z,10.800000
2019-01-25T20:41:47.641Z,10.800000
2019-01-25T20:44:18.003Z,8.200000
2019-01-25T20:46:48.356Z,8.200000
2019-01-25T20:49:18.843Z,9.900000
2019-01-25T20:51:49.292Z,9.900000
2019-01-25T20:54:19.555Z,10.100000
2019-01-25T20:56:49.819Z,10.100000
2019-01-25T20:59:20.131Z,10.000000
2019-01-25T21:01:50.491Z,10.000000
2019-01-25T21:04:25.825Z,9.900000
2019-01-25T21:06:56.100Z,8.900000
2019-01-25T21:09:26.450Z,8.900000
2019-01-25T21:11:56.785Z,10.200000
2019-01-25T21:14:27.063Z,10.200000
2019-01-25T21:16:57.531Z,9.400000
2019-01-25T21:19:27.805Z,9.400000
2019-01-25T21:21:59.117Z,12.200000
2019-01-25T21:24:34.375Z,12.200000
2019-01-25T21:27:04.839Z,7.800000
2019-01-25T21:29:35.184Z,7.800000
2019-01-25T21:32:05.615Z,9.100000
2019-01-25T21:34:35.960Z,9.100000
2019-01-25T21:37:06.566Z,9.600000
2019-01-25T21:39:37.077Z,9.600000
2019-01-25T21:42:07.426Z,9.000000
2019-01-25T21:44:37.813Z,9.000000
2019-01-25T21:47:08.095Z,8.500000
2019-01-25T21:49:38.523Z,8.500000
2019-01-25T21:52:08.904Z,11.400000
2019-01-25T21:54:44.229Z,11.400000
2019-01-25T21:57:14.553Z,6.200000
2019-01-25T21:59:45.296Z,6.200000
2019-01-25T22:02:15.584Z,9.000000
2019-01-25T22:04:45.975Z,9.000000
2019-01-25T22:07:16.356Z,9.200000
2019-01-25T22:09:46.651Z,9.200000
2019-01-25T22:12:17.179Z,8.700000
2019-01-25T22:14:47.579Z,8.700000
2019-01-25T22:17:18.131Z,10.200000
2019-01-25T22:19:48.444Z,10.200000
2019-01-25T22:22:18.800Z,5.800000
2019-01-25T22:24:49.054Z,5.800000
2019-01-25T22:27:19.365Z,6.000000
2019-01-25T22:29:49.975Z,6.000000
2019-01-25T22:32:20.320Z,11.800000
2019-01-25T22:34:50.571Z,11.800000
2019-01-25T22:37:26.059Z,11.200000
2019-01-25T22:39:56.293Z,11.200000
2019-01-25T22:42:27.248Z,10.200000
2019-01-25T22:44:58.126Z,10.200000
2019-01-25T22:47:28.483Z,5.800000
2019-01-25T22:49:59.081Z,5.800000
2019-01-25T22:52:29.366Z,8.400000
2019-01-25T22:54:59.859Z,8.400000
2019-01-25T22:57:30.360Z,6.900000
2019-01-25T23:00:00.821Z,6.900000
2019-01-25T23:02:36.308Z,6.600000
2019-01-25T23:05:06.616Z,6.600000
2019-01-25T23:07:36.943Z,9.500000
2019-01-25T23:10:07.346Z,9.500000
2019-01-25T23:12:37.634Z,7.700000
2019-01-25T23:15:08.031Z,7.700000
2019-01-25T23:17:38.414Z,10.400000
2019-01-25T23:20:08.709Z,10.400000
2019-01-25T23:22:40.150Z,13.200000
2019-01-25T23:25:10.384Z,13.200000
2019-01-25T23:27:40.678Z,11.300000
2019-01-25T23:30:11.075Z,11.300000
2019-01-25T23:32:41.263Z,11.700000
2019-01-25T23:35:11.549Z,11.700000
2019-01-25T23:37:41.831Z,8.000000
2019-01-25T23:40:17.082Z,8.000000
2019-01-25T23:42:47.442Z,5.700000
2019-01-25T23:45:17.753Z,5.700000
2019-01-25T23:47:48.038Z,6.200000
2019-01-25T23:50:18.342Z,6.200000
2019-01-25T23:52:48.675Z,8.200000
2019-01-25T23:55:19.085Z,8.200000
2019-01-25T23:57:49.560Z,4.800000
